createdAt,value
2019-05-14T00:02:12.459Z,1.30
2019-05-14T00:04:42.633Z,4.80
2019-05-14T00:07:13.213Z,1.82
2019-05-14T00:09:43.370Z,6.43
2019-05-14T00:12:13.030Z,2.83
2019-05-14T00:14:43.983Z,2.60
2019-05-14T00:17:13.982Z,1.77
2019-05-14T00:19:43.675Z,2.37
2019-05-14T00:22:13.298Z,2.63
2019-05-14T00:24:43.079Z,2.83
2019-05-14T00:27:12.805Z,2.50
2019-05-14T00:29:42.943Z,2.45
2019-05-14T00:32:12.609Z,2.50
2019-05-14T00:34:42.631Z,2.45
2019-05-14T00:37:12.497Z,1.50
2019-05-14T00:39:42.171Z,4.73
2019-05-14T00:42:12.619Z,1.70
2019-05-14T00:44:54.592Z,2.25
2019-05-14T00:47:14.869Z,2.10
2019-05-14T00:49:44.526Z,3.27
2019-05-14T00:52:14.327Z,3.63
2019-05-14T00:54:43.977Z,3.57
2019-05-14T00:57:13.698Z,2.30
2019-05-14T00:59:43.369Z,4.23
2019-05-14T01:02:13.599Z,4.37
2019-05-14T01:04:43.543Z,5.13
2019-05-14T01:07:14.593Z,5.20
2019-05-14T01:09:44.418Z,3.63
2019-05-14T01:12:14.038Z,2.83
2019-05-14T01:14:43.743Z,2.45
2019-05-14T01:17:13.619Z,3.37
2019-05-14T01:19:43.263Z,4.93
2019-05-14T01:22:12.966Z,4.47
2019-05-14T01:24:42.729Z,5.60
2019-05-14T01:27:13.818Z,3.65
2019-05-14T01:29:43.980Z,3.57
2019-05-14T01:32:15.000Z,2.93
2019-05-14T01:34:44.942Z,2.70
2019-05-14T01:37:14.551Z,3.67
2019-05-14T01:39:44.190Z,3.40
2019-05-14T01:42:13.878Z,3.77
2019-05-14T01:44:43.595Z,7.93
2019-05-14T01:47:13.230Z,3.73
2019-05-14T01:49:43.268Z,3.73
2019-05-14T01:52:12.946Z,3.17
2019-05-14T01:54:42.919Z,4.45
2019-05-14T01:57:12.466Z,6.17
2019-05-14T01:59:43.123Z,2.22
2019-05-14T02:02:12.799Z,2.80
2019-05-14T02:04:42.973Z,3.27
2019-05-14T02:07:15.876Z,3.77
2019-05-14T02:09:51.863Z,3.72
2019-05-14T02:12:22.412Z,5.60
2019-05-14T02:14:52.849Z,6.07
2019-05-14T02:17:23.569Z,4.70
2019-05-14T02:19:53.251Z,5.00
2019-05-14T02:22:22.929Z,2.87
2019-05-14T02:24:52.609Z,3.60
2019-05-14T02:27:22.182Z,2.97
2019-05-14T02:29:52.090Z,8.53
2019-05-14T02:32:21.685Z,7.05
2019-05-14T02:34:51.368Z,6.50
2019-05-14T02:37:21.012Z,5.00
2019-05-14T02:39:50.665Z,3.63
2019-05-14T02:42:20.664Z,3.63
2019-05-14T02:44:50.374Z,3.17
2019-05-14T02:47:20.109Z,3.20
2019-05-14T02:49:50.389Z,4.63
2019-05-14T02:52:21.144Z,2.37
2019-05-14T02:54:50.861Z,4.45
2019-05-14T02:57:20.693Z,3.73
2019-05-14T02:59:51.408Z,4.33
2019-05-14T03:02:21.178Z,3.53
2019-05-14T03:04:50.919Z,5.15
2019-05-14T03:07:20.847Z,4.53
2019-05-14T03:09:50.572Z,4.40
2019-05-14T03:12:20.536Z,4.30
2019-05-14T03:14:50.398Z,4.70
2019-05-14T03:17:21.395Z,4.30
2019-05-14T03:19:51.927Z,5.05
2019-05-14T03:22:27.554Z,3.90
2019-05-14T03:24:53.104Z,2.90
2019-05-14T03:27:23.057Z,8.13
2019-05-14T03:29:52.816Z,3.47
2019-05-14T03:32:23.298Z,5.33
2019-05-14T03:34:54.336Z,7.87
2019-05-14T03:37:24.693Z,4.57
2019-05-14T03:39:54.463Z,5.83
2019-05-14T03:42:24.236Z,2.92
2019-05-14T03:44:54.014Z,6.50
2019-05-14T03:47:23.736Z,4.70
2019-05-14T03:49:53.443Z,4.73
2019-05-14T03:52:23.085Z,5.17
2019-05-14T03:54:52.814Z,5.83
2019-05-14T03:57:23.000Z,4.03
2019-05-14T03:59:52.772Z,2.90
2019-05-14T04:02:22.769Z,4.20
2019-05-14T04:04:52.660Z,3.87
2019-05-14T04:07:22.880Z,3.63
2019-05-14T04:09:53.023Z,5.15
2019-05-14T04:12:22.807Z,4.60
2019-05-14T04:14:53.328Z,6.47
2019-05-14T04:17:32.099Z,5.43
2019-05-14T04:19:54.914Z,5.47
2019-05-14T04:22:24.869Z,5.67
2019-05-14T04:24:56.066Z,3.87
2019-05-14T04:27:29.598Z,4.97
2019-05-14T04:30:00.615Z,7.90
2019-05-14T04:32:31.396Z,10.73
2019-05-14T04:35:01.539Z,8.40
2019-05-14T04:37:31.366Z,5.33
2019-05-14T04:40:02.083Z,7.20
2019-05-14T04:42:31.817Z,8.20
2019-05-14T04:45:05.544Z,7.10
2019-05-14T04:47:37.478Z,6.37
2019-05-14T04:50:10.220Z,7.53
2019-05-14T04:52:40.343Z,8.23
2019-05-14T04:55:11.172Z,5.75
2019-05-14T04:57:40.891Z,7.70
2019-05-14T05:00:12.229Z,7.07
2019-05-14T05:02:42.307Z,9.67
2019-05-14T05:05:12.127Z,7.00
2019-05-14T05:07:41.974Z,8.63
2019-05-14T05:10:12.137Z,7.30
2019-05-14T05:12:41.778Z,6.40
2019-05-14T05:15:11.478Z,5.20
2019-05-14T05:17:48.205Z,8.95
2019-05-14T05:20:13.262Z,7.10
2019-05-14T05:22:42.977Z,9.80
2019-05-14T05:25:12.701Z,7.07
2019-05-14T05:27:43.516Z,7.85
2019-05-14T05:30:13.236Z,10.67
2019-05-14T05:32:43.786Z,6.60
2019-05-14T05:35:13.727Z,7.23
2019-05-14T05:37:43.382Z,10.97
2019-05-14T05:40:13.148Z,7.78
2019-05-14T05:42:43.000Z,10.10
2019-05-14T05:45:13.040Z,10.63
2019-05-14T05:47:54.479Z,8.90
2019-05-14T05:50:14.278Z,6.37
2019-05-14T05:52:43.999Z,5.97
2019-05-14T05:55:13.826Z,9.00
2019-05-14T05:57:43.525Z,7.20
2019-05-14T06:00:13.970Z,9.83
2019-05-14T06:02:43.707Z,7.50
2019-05-14T06:05:13.429Z,8.87
2019-05-14T06:07:43.302Z,7.77
2019-05-14T06:10:13.217Z,11.22
2019-05-14T06:12:42.888Z,8.75
2019-05-14T06:15:14.429Z,13.57
2019-05-14T06:17:44.291Z,9.47
2019-05-14T06:20:14.078Z,10.63
2019-05-14T06:22:43.758Z,6.90
2019-05-14T06:25:13.540Z,8.80
2019-05-14T06:27:43.234Z,8.60
2019-05-14T06:30:13.334Z,7.10
2019-05-14T06:32:44.184Z,7.83
2019-05-14T06:35:14.383Z,11.03
2019-05-14T06:37:44.171Z,11.20
2019-05-14T06:40:13.911Z,9.40
2019-05-14T06:42:43.572Z,8.65
2019-05-14T06:45:13.352Z,7.70
2019-05-14T06:47:45.279Z,8.17
2019-05-14T06:50:15.128Z,8.37
2019-05-14T06:52:45.160Z,8.17
2019-05-14T06:55:15.007Z,10.53
2019-05-14T06:57:45.065Z,7.10
2019-05-14T07:00:15.131Z,10.32
2019-05-14T07:02:44.851Z,7.80
2019-05-14T07:05:14.589Z,9.57
2019-05-14T07:07:44.230Z,8.67
2019-05-14T07:10:14.041Z,8.97
2019-05-14T07:12:43.780Z,9.43
2019-05-14T07:15:13.621Z,9.10
2019-05-14T07:17:43.242Z,10.40
2019-05-14T07:20:13.079Z,10.47
2019-05-14T07:22:43.016Z,9.93
2019-05-14T07:25:12.880Z,20.93
2019-05-14T07:27:42.589Z,13.57
2019-05-14T07:30:12.406Z,7.23
2019-05-14T07:32:42.095Z,13.05
2019-05-14T07:35:12.035Z,9.53
2019-05-14T07:37:41.717Z,9.86
2019-05-14T07:40:11.768Z,8.97
2019-05-14T07:42:41.531Z,11.30
2019-05-14T07:45:11.447Z,11.70
2019-05-14T07:47:41.862Z,10.23
2019-05-14T07:50:13.098Z,12.40
2019-05-14T07:52:46.023Z,8.03
2019-05-14T07:55:14.212Z,9.27
2019-05-14T07:57:43.838Z,11.47
2019-05-14T08:00:13.595Z,7.07
2019-05-14T08:02:43.241Z,12.00
2019-05-14T08:05:13.071Z,6.77
2019-05-14T08:07:42.818Z,8.30
2019-05-14T08:10:12.738Z,11.28
2019-05-14T08:12:42.472Z,7.27
2019-05-14T08:15:18.636Z,11.40
2019-05-14T08:17:45.124Z,6.73
2019-05-14T08:20:18.186Z,8.58
2019-05-14T08:22:49.023Z,8.63
2019-05-14T08:25:19.051Z,6.00
2019-05-14T08:27:48.661Z,6.67
2019-05-14T08:30:19.027Z,5.90
2019-05-14T08:32:49.087Z,5.85
2019-05-14T08:35:18.702Z,7.53
2019-05-14T08:38:04.405Z,5.87
2019-05-14T08:40:21.116Z,6.80
2019-05-14T08:42:50.851Z,5.65
2019-05-14T08:45:20.604Z,5.85
2019-05-14T08:47:50.260Z,9.93
2019-05-14T08:50:20.307Z,5.80
2019-05-14T08:52:49.989Z,6.06
2019-05-14T08:55:19.809Z,5.28
2019-05-14T08:57:50.476Z,7.47
2019-05-14T09:00:20.286Z,6.08
2019-05-14T09:02:49.996Z,5.30
2019-05-14T09:05:19.715Z,10.23
2019-05-14T09:07:49.532Z,6.70
2019-05-14T09:10:19.491Z,6.23
2019-05-14T09:12:49.341Z,5.30
2019-05-14T09:15:19.268Z,5.27
2019-05-14T09:17:49.002Z,6.95
2019-05-14T09:20:18.964Z,5.35
2019-05-14T09:22:49.157Z,6.17
2019-05-14T09:25:19.183Z,5.93
2019-05-14T09:27:49.458Z,6.87
2019-05-14T09:30:19.441Z,6.17
2019-05-14T09:32:49.581Z,7.92
2019-05-14T09:35:20.250Z,4.42
2019-05-14T09:37:51.364Z,5.60
2019-05-14T09:40:22.010Z,6.86
2019-05-14T09:42:51.720Z,4.97
2019-05-14T09:45:21.430Z,6.15
2019-05-14T09:47:51.153Z,7.47
2019-05-14T09:50:23.498Z,6.33
2019-05-14T09:52:52.493Z,5.12
2019-05-14T09:55:22.245Z,7.70
2019-05-14T09:57:51.926Z,3.70
2019-05-14T10:00:21.788Z,7.42
2019-05-14T10:02:51.551Z,5.62
2019-05-14T10:05:21.342Z,6.67
2019-05-14T10:07:51.828Z,3.55
2019-05-14T10:10:21.549Z,4.67
2019-05-14T10:12:56.730Z,4.07
2019-05-14T10:15:22.811Z,4.27
2019-05-14T10:17:52.591Z,7.20
2019-05-14T10:20:36.383Z,6.00
2019-05-14T10:22:53.892Z,8.37
2019-05-14T10:25:23.625Z,2.90
2019-05-14T10:27:53.397Z,3.27
2019-05-14T10:30:23.449Z,4.20
2019-05-14T10:33:18.226Z,4.27
2019-05-14T10:35:51.340Z,6.37
2019-05-14T10:38:21.279Z,2.55
2019-05-14T10:40:50.971Z,4.87
2019-05-14T10:43:21.122Z,3.75
2019-05-14T10:45:50.744Z,8.60
2019-05-14T10:48:20.901Z,3.35
2019-05-14T10:51:03.276Z,2.57
2019-05-14T10:53:23.925Z,4.45
2019-05-14T10:55:53.602Z,3.77
2019-05-14T10:58:23.262Z,4.83
2019-05-14T11:00:53.235Z,4.15
2019-05-14T11:03:23.231Z,4.30
2019-05-14T11:05:58.592Z,5.00
2019-05-14T11:08:29.683Z,3.20
2019-05-14T11:11:04.166Z,6.15
2019-05-14T11:13:39.202Z,5.23
2019-05-14T11:16:08.748Z,5.87
2019-05-14T11:18:39.967Z,4.17
2019-05-14T11:21:24.897Z,3.90
2019-05-14T11:23:41.377Z,4.70
2019-05-14T11:26:11.137Z,7.23
2019-05-14T11:28:40.820Z,5.33
2019-05-14T11:31:10.659Z,6.07
2019-05-14T11:33:40.306Z,7.83
2019-05-14T11:36:09.967Z,4.55
2019-05-14T11:38:39.612Z,7.27
2019-05-14T11:41:10.404Z,6.17
2019-05-14T11:43:40.263Z,6.30
2019-05-14T11:46:13.994Z,5.28
2019-05-14T11:48:45.533Z,6.87
2019-05-14T11:51:15.906Z,6.97
2019-05-14T11:53:45.518Z,4.93
2019-05-14T11:56:19.172Z,4.20
2019-05-14T11:58:47.778Z,4.47
2019-05-14T12:01:19.124Z,4.33
2019-05-14T12:03:50.573Z,3.45
2019-05-14T12:06:20.514Z,5.13
2019-05-14T12:08:50.378Z,7.63
2019-05-14T12:11:20.101Z,3.47
2019-05-14T12:13:50.640Z,5.23
2019-05-14T12:16:20.330Z,4.80
2019-05-14T12:18:49.959Z,4.13
2019-05-14T12:21:20.932Z,4.13
2019-05-14T12:23:50.705Z,6.47
2019-05-14T12:26:25.140Z,6.17
2019-05-14T12:28:56.180Z,6.37
2019-05-14T12:31:26.205Z,5.13
2019-05-14T12:33:58.217Z,4.83
2019-05-14T12:36:29.253Z,5.90
2019-05-14T12:38:59.372Z,3.80
2019-05-14T12:41:30.860Z,4.20
2019-05-14T12:44:00.722Z,3.83
2019-05-14T12:46:30.759Z,4.73
2019-05-14T12:49:00.409Z,4.50
2019-05-14T12:51:30.437Z,6.07
2019-05-14T12:54:00.133Z,3.53
2019-05-14T12:56:30.919Z,4.28
2019-05-14T12:59:00.606Z,6.33
2019-05-14T13:01:30.586Z,4.17
2019-05-14T13:04:00.603Z,7.15
2019-05-14T13:06:30.741Z,3.50
2019-05-14T13:09:00.418Z,2.67
2019-05-14T13:11:30.457Z,3.40
2019-05-14T13:14:00.162Z,5.60
2019-05-14T13:16:31.020Z,2.60
2019-05-14T13:19:00.667Z,3.43
2019-05-14T13:21:31.619Z,3.77
2019-05-14T13:24:08.883Z,4.05
2019-05-14T13:26:39.128Z,3.37
2019-05-14T13:29:10.865Z,4.58
2019-05-14T13:31:40.745Z,5.07
2019-05-14T13:34:10.513Z,4.30
2019-05-14T13:36:44.591Z,2.27
2019-05-14T13:39:11.837Z,4.53
2019-05-14T13:41:42.110Z,2.67
2019-05-14T13:44:21.227Z,4.67
2019-05-14T13:46:43.331Z,4.57
2019-05-14T13:49:14.067Z,5.17
2019-05-14T13:51:43.838Z,2.63
2019-05-14T13:54:13.509Z,5.93
2019-05-14T13:56:43.197Z,2.10
2019-05-14T13:59:12.983Z,2.43
2019-05-14T14:01:42.902Z,4.05
2019-05-14T14:04:15.175Z,3.03
2019-05-14T14:06:44.071Z,1.98
2019-05-14T14:09:13.701Z,2.43
2019-05-14T14:11:43.392Z,4.37
2019-05-14T14:14:13.314Z,2.37
2019-05-14T14:16:43.111Z,4.70
2019-05-14T14:19:12.843Z,2.40
2019-05-14T14:21:42.600Z,4.23
2019-05-14T14:24:12.400Z,3.67
2019-05-14T14:26:42.076Z,3.20
2019-05-14T14:29:11.802Z,2.40
2019-05-14T14:31:41.851Z,4.40
2019-05-14T14:34:11.574Z,4.13
2019-05-14T14:36:41.454Z,4.77
2019-05-14T14:39:11.141Z,4.80
2019-05-14T14:41:40.884Z,2.87
2019-05-14T14:44:11.031Z,4.36
2019-05-14T14:46:41.168Z,4.60
2019-05-14T14:49:11.153Z,3.98
2019-05-14T14:51:44.884Z,2.60
2019-05-14T14:54:16.110Z,4.53
2019-05-14T14:56:49.954Z,3.13
2019-05-14T14:59:19.784Z,2.87
2019-05-14T15:01:50.381Z,4.33
2019-05-14T15:04:21.153Z,4.78
2019-05-14T15:06:51.415Z,1.90
2019-05-14T15:09:23.381Z,3.57
2019-05-14T15:11:53.113Z,4.25
2019-05-14T15:14:22.932Z,2.23
2019-05-14T15:16:52.908Z,5.03
2019-05-14T15:19:22.585Z,4.40
2019-05-14T15:21:52.499Z,3.37
2019-05-14T15:24:23.120Z,3.07
2019-05-14T15:26:52.970Z,3.00
2019-05-14T15:29:22.734Z,3.53
2019-05-14T15:31:53.603Z,3.77
2019-05-14T15:34:24.479Z,3.13
2019-05-14T15:36:55.080Z,2.75
2019-05-14T15:39:25.942Z,3.07
2019-05-14T15:41:55.665Z,3.58
2019-05-14T15:44:25.453Z,2.93
2019-05-14T15:46:58.629Z,2.50
2019-05-14T15:49:29.423Z,2.37
2019-05-14T15:51:59.792Z,4.30
2019-05-14T15:54:42.077Z,2.23
2019-05-14T15:57:02.446Z,2.47
2019-05-14T15:59:32.350Z,3.07
2019-05-14T16:02:02.857Z,3.23
2019-05-14T16:04:32.647Z,2.57
2019-05-14T16:07:02.299Z,1.83
2019-05-14T16:09:32.163Z,4.47
2019-05-14T16:12:02.149Z,5.60
2019-05-14T16:14:31.992Z,2.45
2019-05-14T16:17:01.882Z,5.27
2019-05-14T16:19:31.898Z,7.53
2019-05-14T16:22:01.889Z,2.20
2019-05-14T16:24:32.833Z,1.93
2019-05-14T16:27:02.680Z,4.30
2019-05-14T16:29:44.281Z,2.03
2019-05-14T16:32:04.364Z,2.50
2019-05-14T16:34:34.254Z,4.63
2019-05-14T16:37:03.936Z,6.70
2019-05-14T16:39:33.915Z,3.07
2019-05-14T16:42:03.833Z,5.53
2019-05-14T16:44:34.836Z,1.60
2019-05-14T16:47:04.683Z,2.33
2019-05-14T16:49:34.782Z,3.07
2019-05-14T16:52:04.762Z,3.37
2019-05-14T16:54:34.730Z,4.10
2019-05-14T16:57:10.688Z,3.10
2019-05-14T16:59:39.485Z,3.70
2019-05-14T17:02:09.518Z,3.63
2019-05-14T17:04:40.447Z,2.17
2019-05-14T17:07:10.270Z,2.63
2019-05-14T17:09:40.550Z,2.00
2019-05-14T17:12:10.121Z,2.07
2019-05-14T17:14:39.781Z,4.90
2019-05-14T17:17:09.669Z,3.03
2019-05-14T17:19:39.462Z,4.17
2019-05-14T17:22:25.427Z,2.80
2019-05-14T17:24:43.821Z,2.77
2019-05-14T17:27:13.713Z,2.23
2019-05-14T17:29:43.625Z,3.00
2019-05-14T17:32:13.315Z,3.43
2019-05-14T17:34:44.000Z,4.25
2019-05-14T17:37:13.979Z,1.80
2019-05-14T17:39:44.582Z,1.72
2019-05-14T17:42:14.582Z,4.97
2019-05-14T17:44:44.821Z,3.33
2019-05-14T17:47:14.645Z,2.10
2019-05-14T17:49:45.738Z,1.73
2019-05-14T17:52:21.734Z,1.17
2019-05-14T17:54:49.432Z,4.73
2019-05-14T17:57:24.994Z,3.45
2019-05-14T17:59:59.203Z,1.77
2019-05-14T18:02:31.921Z,2.43
2019-05-14T18:05:03.952Z,2.70
2019-05-14T18:07:36.424Z,2.13
2019-05-14T18:10:08.863Z,2.92
2019-05-14T18:12:44.473Z,1.63
2019-05-14T18:15:17.326Z,3.00
2019-05-14T18:17:49.742Z,3.60
2019-05-14T18:20:20.794Z,2.65
2019-05-14T18:22:51.062Z,1.13
2019-05-14T18:25:28.881Z,2.27
2019-05-14T18:28:00.456Z,2.17
2019-05-14T18:30:30.505Z,1.93
2019-05-14T18:33:00.778Z,1.10
2019-05-14T18:35:31.779Z,1.07
2019-05-14T18:38:01.750Z,3.63
2019-05-14T18:40:32.166Z,1.60
2019-05-14T18:43:08.452Z,1.77
2019-05-14T18:45:38.869Z,2.23
2019-05-14T18:48:08.902Z,3.05
2019-05-14T18:50:39.207Z,2.77
2019-05-14T18:53:15.974Z,0.62
2019-05-14T18:55:46.103Z,4.20
2019-05-14T18:58:19.648Z,2.72
2019-05-14T19:00:50.711Z,2.23
2019-05-14T19:03:21.515Z,3.20
2019-05-14T19:05:51.586Z,2.03
2019-05-14T19:08:23.633Z,2.22
2019-05-14T19:10:53.605Z,5.50
2019-05-14T19:13:24.012Z,2.30
2019-05-14T19:15:54.632Z,2.60
2019-05-14T19:18:28.692Z,3.50
2019-05-14T19:20:59.390Z,5.10
2019-05-14T19:23:29.688Z,2.07
2019-05-14T19:25:59.803Z,3.03
2019-05-14T19:28:34.503Z,5.75
2019-05-14T19:31:06.231Z,1.93
2019-05-14T19:33:38.012Z,4.33
2019-05-14T19:36:09.015Z,2.57
2019-05-14T19:38:42.987Z,1.42
2019-05-14T19:41:13.140Z,2.07
2019-05-14T19:43:45.755Z,2.00
2019-05-14T19:46:16.126Z,3.17
2019-05-14T19:48:48.371Z,1.35
2019-05-14T19:51:19.614Z,3.83
2019-05-14T19:53:52.460Z,1.20
2019-05-14T19:56:22.856Z,1.73
2019-05-14T19:58:53.890Z,3.37
2019-05-14T20:01:24.626Z,2.00
2019-05-14T20:03:58.794Z,3.03
2019-05-14T20:06:29.779Z,1.70
2019-05-14T20:09:00.452Z,2.97
2019-05-14T20:11:31.320Z,1.47
2019-05-14T20:14:01.985Z,1.93
2019-05-14T20:16:32.337Z,1.47
2019-05-14T20:19:02.527Z,3.03
2019-05-14T20:21:32.827Z,2.15
2019-05-14T20:24:03.095Z,4.60
2019-05-14T20:26:33.416Z,6.30
2019-05-14T20:29:04.009Z,2.97
2019-05-14T20:31:35.675Z,7.28
2019-05-14T20:34:08.477Z,3.50
2019-05-14T20:36:40.991Z,1.40
2019-05-14T20:39:11.325Z,3.33
2019-05-14T20:41:41.942Z,2.40
2019-05-14T20:44:15.463Z,4.67
2019-05-14T20:46:49.018Z,3.52
2019-05-14T20:49:19.237Z,3.13
2019-05-14T20:51:49.613Z,3.57
2019-05-14T20:54:23.117Z,5.07
2019-05-14T20:56:53.880Z,4.07
2019-05-14T20:59:25.265Z,5.57
2019-05-14T21:01:55.615Z,2.50
2019-05-14T21:04:28.045Z,4.33
2019-05-14T21:06:58.725Z,4.37
2019-05-14T21:09:30.056Z,4.47
2019-05-14T21:12:00.997Z,4.85
2019-05-14T21:14:38.906Z,4.93
2019-05-14T21:17:10.165Z,2.52
2019-05-14T21:19:40.128Z,4.50
2019-05-14T21:22:11.214Z,4.97
2019-05-14T21:24:41.855Z,3.00
2019-05-14T21:27:20.276Z,4.53
2019-05-14T21:29:54.479Z,4.70
2019-05-14T21:32:25.320Z,4.42
2019-05-14T21:34:55.237Z,4.33
2019-05-14T21:37:28.246Z,3.87
2019-05-14T21:39:58.304Z,4.00
2019-05-14T21:42:30.252Z,5.90
2019-05-14T21:45:00.101Z,5.40
2019-05-14T21:47:30.688Z,4.10
2019-05-14T21:50:01.716Z,3.23
2019-05-14T21:52:31.704Z,2.97
2019-05-14T21:55:01.385Z,3.75
2019-05-14T21:57:32.565Z,3.53
2019-05-14T22:00:02.612Z,4.15
2019-05-14T22:02:35.094Z,6.33
2019-05-14T22:05:05.131Z,6.03
2019-05-14T22:07:35.020Z,4.27
2019-05-14T22:10:05.755Z,3.10
2019-05-14T22:12:35.558Z,4.47
2019-05-14T22:15:05.868Z,3.10
2019-05-14T22:17:38.032Z,3.03
2019-05-14T22:20:08.428Z,4.50
2019-05-14T22:22:39.200Z,3.40
2019-05-14T22:25:10.045Z,6.80
2019-05-14T22:27:39.825Z,4.10
2019-05-14T22:30:11.007Z,4.78
2019-05-14T22:32:41.773Z,3.77
2019-05-14T22:35:12.686Z,4.17
2019-05-14T22:37:43.238Z,4.53
2019-05-14T22:40:13.568Z,4.97
2019-05-14T22:42:44.414Z,3.63
2019-05-14T22:45:15.782Z,4.03
2019-05-14T22:47:49.024Z,4.60
2019-05-14T22:50:18.687Z,4.30
2019-05-14T22:52:48.775Z,4.63
2019-05-14T22:55:19.647Z,3.00
2019-05-14T22:57:50.538Z,4.77
2019-05-14T23:00:21.166Z,4.80
2019-05-14T23:02:50.917Z,3.55
2019-05-14T23:05:20.657Z,4.70
2019-05-14T23:07:52.394Z,4.97
2019-05-14T23:10:23.650Z,5.67
2019-05-14T23:12:55.370Z,3.02
2019-05-14T23:15:25.241Z,4.17
2019-05-14T23:17:54.925Z,6.10
2019-05-14T23:20:24.687Z,4.37
2019-05-14T23:22:54.473Z,2.02
2019-05-14T23:25:24.146Z,3.60
2019-05-14T23:27:54.828Z,2.23
2019-05-14T23:30:32.132Z,3.23
2019-05-14T23:33:03.427Z,2.87
2019-05-14T23:35:33.209Z,2.03
2019-05-14T23:38:03.821Z,5.50
2019-05-14T23:40:33.814Z,3.27
2019-05-14T23:43:03.642Z,3.87
2019-05-14T23:45:33.461Z,4.30
2019-05-14T23:48:03.284Z,3.90
2019-05-14T23:50:33.056Z,3.90
2019-05-14T23:53:05.954Z,4.10
2019-05-14T23:55:35.629Z,5.40
2019-05-14T23:58:08.352Z,3.70
